Valor — WDD8691 — position and weather

sailwx.info

Track history (hours):
 
Tides and Currents Weather Stations Pressure Air Temp Water Temp Dewpoint Dewpoint Depression Visibility Wind Speed Wind Dir Waves Ship Positions

Valor

Owner: Crowley Marine Services, Inc., Seattle, WA. More information available from US FCC via Universal Licensing System and Coast Guard Vessel Documentation Center.

Last reported at 2015-Jan-27 00:33 UTC. Time now 2015-Jan-27 01:11 UTC.
Position N 38°03' W 122°15'.

Length 8 m; draft 5.5 m.

Type: Tug. MMSI: 367301480.

Date/timePositionNaut miles runAvg speedWind from/ knotsBaromVisibWave heightAir tempDewpointWater temp
2015-Jan-27 00:33N 38°03' W 122°15'0 0.0
2015-Jan-26 23:28N 38°03' W 122°15'0 0.0
2015-Jan-26 22:33N 38°03' W 122°15'0 0.0
2015-Jan-26 20:29N 38°03' W 122°15'0 0.0
2015-Jan-26 19:31N 38°03' W 122°15'0 0.0
2015-Jan-26 18:33N 38°03' W 122°15'0 0.0
2015-Jan-26 17:33N 38°03' W 122°15'0 0.0
2015-Jan-26 16:33N 38°03' W 122°15'0 0.0
2015-Jan-26 15:33N 38°03' W 122°15'0 0.0
2015-Jan-26 14:33N 38°03' W 122°15'0 0.0
2015-Jan-26 13:33N 38°03' W 122°15'0 0.0
2015-Jan-26 12:33N 38°03' W 122°15'0 0.0
2015-Jan-26 11:33N 38°03' W 122°15'0 0.0
2015-Jan-26 10:33N 38°03' W 122°15'0 0.0
2015-Jan-26 09:33N 38°03' W 122°15'0 0.0
2015-Jan-26 04:20N 38°03' W 122°15'5 2.6
2015-Jan-26 02:33N 38°02' W 122°09'3 1.3
2015-Jan-26 00:32N 38°03' W 122°12'9 9.5
2015-Jan-25 23:33N 38°01' W 122°23'7 6.6
2015-Jan-25 22:33N 37°54' W 122°22'0 0.1
2015-Jan-25 21:33N 37°55' W 122°22'5 4.8
2015-Jan-25 20:33N 37°58' W 122°26'9 9.5
2015-Jan-25 19:33N 38°03' W 122°16'1 1.0
2015-Jan-25 18:33N 38°03' W 122°15'0 0.0
2015-Jan-25 17:33N 38°03' W 122°15'0 0.0
2015-Jan-25 16:33N 38°03' W 122°15'0 0.0
2015-Jan-25 15:33N 38°03' W 122°15'0 0.0
2015-Jan-25 14:33N 38°03' W 122°15'0 0.0
2015-Jan-25 13:33N 38°03' W 122°15'0 0.0
2015-Jan-25 12:33N 38°03' W 122°15'0 0.0
2015-Jan-25 11:33N 38°03' W 122°15'0 0.0
2015-Jan-25 10:33N 38°03' W 122°15'1 1.0
2015-Jan-25 09:33N 38°03' W 122°16'1 1.2
2015-Jan-25 08:30N 38°03' W 122°17'2 0.6
2015-Jan-25 05:08N 38°04' W 122°15'5 8.5
2015-Jan-25 04:33N 38°02' W 122°09'0 0.1
2015-Jan-25 03:33N 38°02' W 122°09'4 3.4
2015-Jan-25 02:25N 38°04' W 122°13'7 6.4
2015-Jan-25 01:20N 38°02' W 122°22'5 6.1
2015-Jan-25 00:33N 37°58' W 122°26'3 3.2
2015-Jan-24 23:33N 37°55' W 122°25'2 2.4
2015-Jan-24 22:33N 37°55' W 122°22'0 0.0
2015-Jan-24 21:33N 37°55' W 122°22'0 0.0
2015-Jan-24 20:33N 37°55' W 122°22'0 0.2
2015-Jan-24 19:33N 37°55' W 122°22'2 2.3
2015-Jan-24 18:33N 37°55' W 122°25'0 0.1
2015-Jan-24 17:33N 37°55' W 122°25'0 0.0
2015-Jan-24 16:33N 37°55' W 122°25'0 0.0
2015-Jan-24 15:33N 37°55' W 122°25'0 0.0
2015-Jan-24 14:33N 37°55' W 122°25'0 0.0
2015-Jan-24 13:33N 37°55' W 122°25'0 0.0
2015-Jan-24 12:33N 37°55' W 122°25'0 0.0
2015-Jan-24 11:33N 37°55' W 122°25'2 2.1
2015-Jan-24 10:33N 37°55' W 122°22'0 0.0
2015-Jan-24 09:33N 37°55' W 122°22'3 3.3
2015-Jan-24 08:33N 37°52' W 122°24'5 5.1
2015-Jan-24 07:33N 37°49' W 122°20'0 0.0
2015-Jan-24 06:33N 37°49' W 122°20'0 0.0
2015-Jan-24 05:33N 37°49' W 122°20'1 0.7
2015-Jan-24 04:33N 37°48' W 122°20'1 1.5
2015-Jan-24 03:33N 37°47' W 122°18'1 0.7
2015-Jan-24 02:34N 37°48' W 122°19'2 1.5
2015-Jan-24 01:33N 37°49' W 122°20'2 1.6
2015-Jan-24 00:33N 37°49' W 122°19'0 0.0
2015-Jan-23 23:33N 37°49' W 122°19'0 0.0
2015-Jan-23 22:33N 37°49' W 122°19'0 0.0
2015-Jan-23 21:33N 37°49' W 122°19'0 0.0
2015-Jan-23 20:33N 37°49' W 122°19'1 1.2
2015-Jan-23 19:33N 37°49' W 122°20'8 7.5
2015-Jan-23 18:33N 37°55' W 122°25'2 2.3
2015-Jan-23 17:33N 37°53' W 122°25'6 6.4
2015-Jan-23 16:34N 37°48' W 122°30'0 0.2
2015-Jan-23 15:34N 37°48' W 122°30'5 4.6
2015-Jan-23 14:33N 37°49' W 122°24'4 4.4
2015-Jan-23 13:33N 37°49' W 122°19'0 0.0
2015-Jan-23 12:33N 37°49' W 122°19'0 0.0
2015-Jan-23 11:33N 37°49' W 122°19'1 1.0
2015-Jan-23 10:33N 37°49' W 122°20'8 7.9
2015-Jan-23 09:33N 37°55' W 122°25'0 0.4
2015-Jan-23 08:33N 37°56' W 122°25'3 2.5
2015-Jan-23 07:33N 37°53' W 122°25'6 6.3
2015-Jan-23 06:33N 37°49' W 122°19'0 0.0
2015-Jan-23 05:33N 37°49' W 122°19'0 0.0
2015-Jan-23 04:33N 37°49' W 122°19'0 0.0
2015-Jan-23 03:33N 37°49' W 122°19'0 0.0
2015-Jan-23 02:33N 37°49' W 122°19'0 0.0
2015-Jan-23 01:33N 37°49' W 122°19'0 0.0
2015-Jan-23 00:33N 37°49' W 122°19'0 0.0
2015-Jan-22 23:33N 37°49' W 122°19'0 0.0
2015-Jan-22 22:33N 37°49' W 122°19'0 0.0
2015-Jan-22 21:33N 37°49' W 122°19'0 0.0
2015-Jan-22 20:33N 37°49' W 122°19'0 0.0
2015-Jan-22 19:33N 37°49' W 122°19'0 0.0
2015-Jan-22 18:33N 37°49' W 122°19'0 0.0
2015-Jan-22 17:33N 37°49' W 122°19'0 0.0
2015-Jan-22 16:33N 37°49' W 122°19'0 0.0
2015-Jan-22 15:33N 37°49' W 122°19'0 0.0
2015-Jan-22 14:33N 37°49' W 122°19'0 0.0
2015-Jan-22 13:33N 37°49' W 122°19'0 0.0
2015-Jan-22 12:33N 37°49' W 122°19'0 0.0
2015-Jan-22 11:33N 37°49' W 122°19'0 0.0
2015-Jan-22 10:33N 37°49' W 122°19'0 0.0
2015-Jan-22 09:33N 37°49' W 122°19'0 0.0
2015-Jan-22 08:33N 37°49' W 122°19'0 0.0
2015-Jan-22 07:33N 37°49' W 122°19'0 0.0
2015-Jan-22 06:33N 37°49' W 122°19'0 0.0
2015-Jan-22 05:33N 37°49' W 122°19'0 0.1
2015-Jan-22 04:33N 37°49' W 122°19'0 0.0
2015-Jan-22 03:33N 37°49' W 122°19'0 0.0
2015-Jan-22 02:33N 37°49' W 122°19'0 0.0
2015-Jan-22 01:33N 37°49' W 122°19'0 0.0
2015-Jan-22 00:33N 37°49' W 122°19'1 0.7
2015-Jan-21 23:34N 37°49' W 122°19'0 0.1
2015-Jan-21 22:50N 37°49' W 122°19'0 0.1
2015-Jan-21 22:46N 37°49' W 122°19'0 0.3
2015-Jan-21 22:33N 37°49' W 122°19'1 0.6
2015-Jan-21 21:33N 37°49' W 122°19'0 0.0
2015-Jan-21 20:33N 37°49' W 122°19'0 0.0
2015-Jan-21 19:33N 37°49' W 122°19'0 0.0
2015-Jan-21 18:33N 37°49' W 122°19'0 0.0
2015-Jan-21 17:33N 37°49' W 122°19'0 0.0
2015-Jan-21 16:33N 37°49' W 122°19'0 0.0
2015-Jan-21 15:33N 37°49' W 122°19'0 0.1
2015-Jan-21 14:33N 37°49' W 122°19'0 0.1
2015-Jan-21 13:33N 37°49' W 122°19'0 0.0
2015-Jan-21 12:33N 37°49' W 122°19'0 0.0
2015-Jan-21 11:33N 37°49' W 122°19'0 0.0
2015-Jan-21 10:33N 37°49' W 122°19'0 0.0
2015-Jan-21 09:33N 37°49' W 122°19'0 0.0
2015-Jan-21 08:33N 37°49' W 122°19'0 0.0
2015-Jan-21 07:33N 37°49' W 122°19'0 0.0
2015-Jan-21 06:33N 37°49' W 122°19'0 0.0
2015-Jan-21 05:33N 37°49' W 122°19'0 0.0
2015-Jan-21 04:33N 37°49' W 122°19'0 0.0
2015-Jan-21 03:33N 37°49' W 122°19'0 0.0
2015-Jan-21 02:33N 37°49' W 122°19'0 0.0
2015-Jan-21 01:33N 37°49' W 122°19'0 0.0
2015-Jan-21 00:33N 37°49' W 122°19'0 0.0
2015-Jan-20 23:33N 37°49' W 122°19'0 0.0
2015-Jan-20 22:33N 37°49' W 122°19'0 0.0
2015-Jan-20 21:33N 37°49' W 122°19'0 0.0
2015-Jan-20 20:33N 37°49' W 122°19'0 0.0
2015-Jan-20 19:33N 37°49' W 122°19'0 0.0
2015-Jan-20 18:33N 37°49' W 122°19'0 0.0
2015-Jan-20 17:33N 37°49' W 122°19'7 7.4
2015-Jan-20 16:33N 37°55' W 122°25'1 0.8
2015-Jan-20 15:33N 37°55' W 122°25'1 1.0
2015-Jan-20 14:33N 37°54' W 122°25'1 1.0
2015-Jan-20 13:33N 37°55' W 122°25'0 0.0
2015-Jan-20 12:33N 37°55' W 122°25'0 0.0
2015-Jan-20 11:33N 37°55' W 122°25'0 0.0
2015-Jan-20 10:33N 37°55' W 122°25'0 0.0
2015-Jan-20 09:33N 37°55' W 122°25'4 3.9
2015-Jan-20 08:33N 37°59' W 122°25'9 7.7
2015-Jan-20 07:27N 38°03' W 122°16'0 0.0
2015-Jan-20 06:33N 38°03' W 122°16'0 0.1
2015-Jan-20 05:32N 38°03' W 122°16'0 0.1
2015-Jan-20 04:33N 38°03' W 122°16'1 0.8
2015-Jan-20 03:33N 38°03' W 122°15'0 0.0
2015-Jan-20 02:33N 38°03' W 122°15'0 0.0
2015-Jan-20 01:27N 38°03' W 122°15'0 0.0
2015-Jan-20 00:33N 38°03' W 122°15'0 0.0
2015-Jan-19 14:20N 38°03' W 122°15'0 0.0
2015-Jan-19 13:08N 38°03' W 122°15'0 0.1
2015-Jan-19 12:33N 38°03' W 122°15'0 0.1
2015-Jan-19 10:22N 38°04' W 122°14'3 2.9
2015-Jan-19 09:21N 38°03' W 122°18'5 4.3
2015-Jan-19 08:09N 38°01' W 122°24'3 4.5
2015-Jan-19 07:33N 37°58' W 122°26'3 3.0
2015-Jan-19 06:34N 37°55' W 122°25'6 5.6
2015-Jan-19 05:33N 37°50' W 122°22'2 2.2
2015-Jan-19 04:33N 37°48' W 122°21'0 0.0
2015-Jan-19 03:33N 37°48' W 122°21'0 0.0
2015-Jan-19 02:33N 37°48' W 122°21'2 1.6
2015-Jan-19 01:34N 37°48' W 122°19'1 0.6
2015-Jan-19 00:33N 37°48' W 122°18'3 2.8
2015-Jan-18 23:33N 37°48' W 122°21'3 2.6
2015-Jan-18 22:33N 37°49' W 122°19'0 0.0
2015-Jan-18 21:33N 37°49' W 122°19'0 0.0
2015-Jan-18 20:33N 37°49' W 122°19'0 0.0
2015-Jan-18 19:33N 37°49' W 122°19'0 0.0
2015-Jan-18 18:33N 37°49' W 122°19'0 0.0
2015-Jan-18 17:33N 37°49' W 122°19'0 0.0
2015-Jan-18 16:33N 37°49' W 122°19'0 0.0
2015-Jan-18 15:33N 37°49' W 122°19'0 0.0
2015-Jan-18 14:33N 37°49' W 122°19'0 0.0
2015-Jan-18 13:33N 37°49' W 122°19'0 0.0
2015-Jan-18 12:33N 37°49' W 122°19'0 0.0
2015-Jan-18 11:33N 37°49' W 122°19'0 0.0
2015-Jan-18 10:33N 37°49' W 122°19'0 0.0
2015-Jan-18 09:33N 37°49' W 122°19'0 0.0
2015-Jan-18 08:33N 37°49' W 122°19'2 1.6
2015-Jan-18 07:33N 37°48' W 122°19'2 2.1
2015-Jan-18 06:33N 37°48' W 122°22'1 0.9
2015-Jan-18 05:33N 37°48' W 122°21'0 0.0
2015-Jan-18 04:33N 37°48' W 122°21'0 0.0
2015-Jan-18 03:33N 37°48' W 122°21'2 1.5
2015-Jan-18 02:33N 37°48' W 122°19'2 1.5
2015-Jan-18 01:33N 37°48' W 122°21'0 0.0
2015-Jan-18 00:33N 37°48' W 122°21'0 0.0
2015-Jan-17 23:33N 37°48' W 122°21'0 0.0
2015-Jan-17 22:33N 37°48' W 122°21'0 0.1
2015-Jan-17 21:33N 37°48' W 122°21'10 9.7
2015-Jan-17 20:33N 37°57' W 122°26'10 9.8
2015-Jan-17 19:30N 38°03' W 122°16'0 0.3
2015-Jan-17 18:33N 38°04' W 122°16'8 7.9
2015-Jan-17 17:33N 38°00' W 122°25'9 8.9
2015-Jan-17 16:33N 37°51' W 122°25'6 5.6
2015-Jan-17 15:33N 37°49' W 122°31'4 3.9
2015-Jan-17 14:33N 37°49' W 122°26'2 2.1
2015-Jan-17 13:33N 37°48' W 122°24'5 5.1
2015-Jan-17 12:33N 37°53' W 122°25'9 8.8
2015-Jan-17 11:33N 38°02' W 122°22'6 5.8
2015-Jan-17 10:29N 38°04' W 122°14'1 1.3
2015-Jan-17 09:33N 38°04' W 122°16'6 6.5
2015-Jan-17 08:33N 38°01' W 122°23'6 6.5
2015-Jan-17 07:33N 37°55' W 122°25'8 7.5
2015-Jan-17 06:33N 37°49' W 122°19'0 0.0
2015-Jan-17 05:33N 37°49' W 122°19'0 0.0
2015-Jan-17 04:33N 37°49' W 122°19'0 0.0
2015-Jan-17 03:33N 37°49' W 122°19'0 0.0
2015-Jan-17 02:33N 37°49' W 122°19'0 0.0
2015-Jan-17 01:33N 37°49' W 122°19'0 0.0
2015-Jan-17 00:33N 37°49' W 122°19'  
Track history (hours):
 
Tides and Currents Weather Stations Pressure Air Temp Water Temp Dewpoint Dewpoint Depression Visibility Wind Speed Wind Dir Waves Ship Positions

Valor

Owner: Crowley Marine Services, Inc., Seattle, WA. More information available from US FCC via Universal Licensing System and Coast Guard Vessel Documentation Center.

Last reported at 2015-Jan-27 00:33 UTC. Time now 2015-Jan-27 01:11 UTC.
Position N 38°03' W 122°15'.

Length 8 m; draft 5.5 m.

Type: Tug. MMSI: 367301480.

Date/timePositionNaut miles runAvg speedWind from/ knotsBaromVisibWave heightAir tempDewpointWater temp
2015-Jan-27 00:33N 38°03' W 122°15'0 0.0
2015-Jan-26 23:28N 38°03' W 122°15'0 0.0
2015-Jan-26 22:33N 38°03' W 122°15'0 0.0
2015-Jan-26 20:29N 38°03' W 122°15'0 0.0
2015-Jan-26 19:31N 38°03' W 122°15'0 0.0
2015-Jan-26 18:33N 38°03' W 122°15'0 0.0
2015-Jan-26 17:33N 38°03' W 122°15'0 0.0
2015-Jan-26 16:33N 38°03' W 122°15'0 0.0
2015-Jan-26 15:33N 38°03' W 122°15'0 0.0
2015-Jan-26 14:33N 38°03' W 122°15'0 0.0
2015-Jan-26 13:33N 38°03' W 122°15'0 0.0
2015-Jan-26 12:33N 38°03' W 122°15'0 0.0
2015-Jan-26 11:33N 38°03' W 122°15'0 0.0
2015-Jan-26 10:33N 38°03' W 122°15'0 0.0
2015-Jan-26 09:33N 38°03' W 122°15'0 0.0
2015-Jan-26 04:20N 38°03' W 122°15'5 2.6
2015-Jan-26 02:33N 38°02' W 122°09'3 1.3
2015-Jan-26 00:32N 38°03' W 122°12'9 9.5
2015-Jan-25 23:33N 38°01' W 122°23'7 6.6
2015-Jan-25 22:33N 37°54' W 122°22'0 0.1
2015-Jan-25 21:33N 37°55' W 122°22'5 4.8
2015-Jan-25 20:33N 37°58' W 122°26'9 9.5
2015-Jan-25 19:33N 38°03' W 122°16'1 1.0
2015-Jan-25 18:33N 38°03' W 122°15'0 0.0
2015-Jan-25 17:33N 38°03' W 122°15'0 0.0
2015-Jan-25 16:33N 38°03' W 122°15'0 0.0
2015-Jan-25 15:33N 38°03' W 122°15'0 0.0
2015-Jan-25 14:33N 38°03' W 122°15'0 0.0
2015-Jan-25 13:33N 38°03' W 122°15'0 0.0
2015-Jan-25 12:33N 38°03' W 122°15'0 0.0
2015-Jan-25 11:33N 38°03' W 122°15'0 0.0
2015-Jan-25 10:33N 38°03' W 122°15'1 1.0
2015-Jan-25 09:33N 38°03' W 122°16'1 1.2
2015-Jan-25 08:30N 38°03' W 122°17'2 0.6
2015-Jan-25 05:08N 38°04' W 122°15'5 8.5
2015-Jan-25 04:33N 38°02' W 122°09'0 0.1
2015-Jan-25 03:33N 38°02' W 122°09'4 3.4
2015-Jan-25 02:25N 38°04' W 122°13'7 6.4
2015-Jan-25 01:20N 38°02' W 122°22'5 6.1
2015-Jan-25 00:33N 37°58' W 122°26'3 3.2
2015-Jan-24 23:33N 37°55' W 122°25'2 2.4
2015-Jan-24 22:33N 37°55' W 122°22'0 0.0
2015-Jan-24 21:33N 37°55' W 122°22'0 0.0
2015-Jan-24 20:33N 37°55' W 122°22'0 0.2
2015-Jan-24 19:33N 37°55' W 122°22'2 2.3
2015-Jan-24 18:33N 37°55' W 122°25'0 0.1
2015-Jan-24 17:33N 37°55' W 122°25'0 0.0
2015-Jan-24 16:33N 37°55' W 122°25'0 0.0
2015-Jan-24 15:33N 37°55' W 122°25'0 0.0
2015-Jan-24 14:33N 37°55' W 122°25'0 0.0
2015-Jan-24 13:33N 37°55' W 122°25'0 0.0
2015-Jan-24 12:33N 37°55' W 122°25'0 0.0
2015-Jan-24 11:33N 37°55' W 122°25'2 2.1
2015-Jan-24 10:33N 37°55' W 122°22'0 0.0
2015-Jan-24 09:33N 37°55' W 122°22'3 3.3
2015-Jan-24 08:33N 37°52' W 122°24'5 5.1
2015-Jan-24 07:33N 37°49' W 122°20'0 0.0
2015-Jan-24 06:33N 37°49' W 122°20'0 0.0
2015-Jan-24 05:33N 37°49' W 122°20'1 0.7
2015-Jan-24 04:33N 37°48' W 122°20'1 1.5
2015-Jan-24 03:33N 37°47' W 122°18'1 0.7
2015-Jan-24 02:34N 37°48' W 122°19'2 1.5
2015-Jan-24 01:33N 37°49' W 122°20'2 1.6
2015-Jan-24 00:33N 37°49' W 122°19'0 0.0
2015-Jan-23 23:33N 37°49' W 122°19'0 0.0
2015-Jan-23 22:33N 37°49' W 122°19'0 0.0
2015-Jan-23 21:33N 37°49' W 122°19'0 0.0
2015-Jan-23 20:33N 37°49' W 122°19'1 1.2
2015-Jan-23 19:33N 37°49' W 122°20'8 7.5
2015-Jan-23 18:33N 37°55' W 122°25'2 2.3
2015-Jan-23 17:33N 37°53' W 122°25'6 6.4
2015-Jan-23 16:34N 37°48' W 122°30'0 0.2
2015-Jan-23 15:34N 37°48' W 122°30'5 4.6
2015-Jan-23 14:33N 37°49' W 122°24'4 4.4
2015-Jan-23 13:33N 37°49' W 122°19'0 0.0
2015-Jan-23 12:33N 37°49' W 122°19'0 0.0
2015-Jan-23 11:33N 37°49' W 122°19'1 1.0
2015-Jan-23 10:33N 37°49' W 122°20'8 7.9
2015-Jan-23 09:33N 37°55' W 122°25'0 0.4
2015-Jan-23 08:33N 37°56' W 122°25'3 2.5
2015-Jan-23 07:33N 37°53' W 122°25'6 6.3
2015-Jan-23 06:33N 37°49' W 122°19'0 0.0
2015-Jan-23 05:33N 37°49' W 122°19'0 0.0
2015-Jan-23 04:33N 37°49' W 122°19'0 0.0
2015-Jan-23 03:33N 37°49' W 122°19'0 0.0
2015-Jan-23 02:33N 37°49' W 122°19'0 0.0
2015-Jan-23 01:33N 37°49' W 122°19'0 0.0
2015-Jan-23 00:33N 37°49' W 122°19'0 0.0
2015-Jan-22 23:33N 37°49' W 122°19'0 0.0
2015-Jan-22 22:33N 37°49' W 122°19'0 0.0
2015-Jan-22 21:33N 37°49' W 122°19'0 0.0
2015-Jan-22 20:33N 37°49' W 122°19'0 0.0
2015-Jan-22 19:33N 37°49' W 122°19'0 0.0
2015-Jan-22 18:33N 37°49' W 122°19'0 0.0
2015-Jan-22 17:33N 37°49' W 122°19'0 0.0
2015-Jan-22 16:33N 37°49' W 122°19'0 0.0
2015-Jan-22 15:33N 37°49' W 122°19'0 0.0
2015-Jan-22 14:33N 37°49' W 122°19'0 0.0
2015-Jan-22 13:33N 37°49' W 122°19'0 0.0
2015-Jan-22 12:33N 37°49' W 122°19'0 0.0
2015-Jan-22 11:33N 37°49' W 122°19'0 0.0
2015-Jan-22 10:33N 37°49' W 122°19'0 0.0
2015-Jan-22 09:33N 37°49' W 122°19'0 0.0
2015-Jan-22 08:33N 37°49' W 122°19'0 0.0
2015-Jan-22 07:33N 37°49' W 122°19'0 0.0
2015-Jan-22 06:33N 37°49' W 122°19'0 0.0
2015-Jan-22 05:33N 37°49' W 122°19'0 0.1
2015-Jan-22 04:33N 37°49' W 122°19'0 0.0
2015-Jan-22 03:33N 37°49' W 122°19'0 0.0
2015-Jan-22 02:33N 37°49' W 122°19'0 0.0
2015-Jan-22 01:33N 37°49' W 122°19'0 0.0
2015-Jan-22 00:33N 37°49' W 122°19'1 0.7
2015-Jan-21 23:34N 37°49' W 122°19'0 0.1
2015-Jan-21 22:50N 37°49' W 122°19'0 0.1
2015-Jan-21 22:46N 37°49' W 122°19'0 0.3
2015-Jan-21 22:33N 37°49' W 122°19'1 0.6
2015-Jan-21 21:33N 37°49' W 122°19'0 0.0
2015-Jan-21 20:33N 37°49' W 122°19'0 0.0
2015-Jan-21 19:33N 37°49' W 122°19'0 0.0
2015-Jan-21 18:33N 37°49' W 122°19'0 0.0
2015-Jan-21 17:33N 37°49' W 122°19'0 0.0
2015-Jan-21 16:33N 37°49' W 122°19'0 0.0
2015-Jan-21 15:33N 37°49' W 122°19'0 0.1
2015-Jan-21 14:33N 37°49' W 122°19'0 0.1
2015-Jan-21 13:33N 37°49' W 122°19'0 0.0
2015-Jan-21 12:33N 37°49' W 122°19'0 0.0
2015-Jan-21 11:33N 37°49' W 122°19'0 0.0
2015-Jan-21 10:33N 37°49' W 122°19'0 0.0
2015-Jan-21 09:33N 37°49' W 122°19'0 0.0
2015-Jan-21 08:33N 37°49' W 122°19'0 0.0
2015-Jan-21 07:33N 37°49' W 122°19'0 0.0
2015-Jan-21 06:33N 37°49' W 122°19'0 0.0
2015-Jan-21 05:33N 37°49' W 122°19'0 0.0
2015-Jan-21 04:33N 37°49' W 122°19'0 0.0
2015-Jan-21 03:33N 37°49' W 122°19'0 0.0
2015-Jan-21 02:33N 37°49' W 122°19'0 0.0
2015-Jan-21 01:33N 37°49' W 122°19'0 0.0
2015-Jan-21 00:33N 37°49' W 122°19'0 0.0
2015-Jan-20 23:33N 37°49' W 122°19'0 0.0
2015-Jan-20 22:33N 37°49' W 122°19'0 0.0
2015-Jan-20 21:33N 37°49' W 122°19'0 0.0
2015-Jan-20 20:33N 37°49' W 122°19'0 0.0
2015-Jan-20 19:33N 37°49' W 122°19'0 0.0
2015-Jan-20 18:33N 37°49' W 122°19'0 0.0
2015-Jan-20 17:33N 37°49' W 122°19'7 7.4
2015-Jan-20 16:33N 37°55' W 122°25'1 0.8
2015-Jan-20 15:33N 37°55' W 122°25'1 1.0
2015-Jan-20 14:33N 37°54' W 122°25'1 1.0
2015-Jan-20 13:33N 37°55' W 122°25'0 0.0
2015-Jan-20 12:33N 37°55' W 122°25'0 0.0
2015-Jan-20 11:33N 37°55' W 122°25'0 0.0
2015-Jan-20 10:33N 37°55' W 122°25'0 0.0
2015-Jan-20 09:33N 37°55' W 122°25'4 3.9
2015-Jan-20 08:33N 37°59' W 122°25'9 7.7
2015-Jan-20 07:27N 38°03' W 122°16'0 0.0
2015-Jan-20 06:33N 38°03' W 122°16'0 0.1
2015-Jan-20 05:32N 38°03' W 122°16'0 0.1
2015-Jan-20 04:33N 38°03' W 122°16'1 0.8
2015-Jan-20 03:33N 38°03' W 122°15'0 0.0
2015-Jan-20 02:33N 38°03' W 122°15'0 0.0
2015-Jan-20 01:27N 38°03' W 122°15'0 0.0
2015-Jan-20 00:33N 38°03' W 122°15'0 0.0
2015-Jan-19 14:20N 38°03' W 122°15'0 0.0
2015-Jan-19 13:08N 38°03' W 122°15'0 0.1
2015-Jan-19 12:33N 38°03' W 122°15'0 0.1
2015-Jan-19 10:22N 38°04' W 122°14'3 2.9
2015-Jan-19 09:21N 38°03' W 122°18'5 4.3
2015-Jan-19 08:09N 38°01' W 122°24'3 4.5
2015-Jan-19 07:33N 37°58' W 122°26'3 3.0
2015-Jan-19 06:34N 37°55' W 122°25'6 5.6
2015-Jan-19 05:33N 37°50' W 122°22'2 2.2
2015-Jan-19 04:33N 37°48' W 122°21'0 0.0
2015-Jan-19 03:33N 37°48' W 122°21'0 0.0
2015-Jan-19 02:33N 37°48' W 122°21'2 1.6
2015-Jan-19 01:34N 37°48' W 122°19'1 0.6
2015-Jan-19 00:33N 37°48' W 122°18'3 2.8
2015-Jan-18 23:33N 37°48' W 122°21'3 2.6
2015-Jan-18 22:33N 37°49' W 122°19'0 0.0
2015-Jan-18 21:33N 37°49' W 122°19'0 0.0
2015-Jan-18 20:33N 37°49' W 122°19'0 0.0
2015-Jan-18 19:33N 37°49' W 122°19'0 0.0
2015-Jan-18 18:33N 37°49' W 122°19'0 0.0
2015-Jan-18 17:33N 37°49' W 122°19'0 0.0
2015-Jan-18 16:33N 37°49' W 122°19'0 0.0
2015-Jan-18 15:33N 37°49' W 122°19'0 0.0
2015-Jan-18 14:33N 37°49' W 122°19'0 0.0
2015-Jan-18 13:33N 37°49' W 122°19'0 0.0
2015-Jan-18 12:33N 37°49' W 122°19'0 0.0
2015-Jan-18 11:33N 37°49' W 122°19'0 0.0
2015-Jan-18 10:33N 37°49' W 122°19'0 0.0
2015-Jan-18 09:33N 37°49' W 122°19'0 0.0
2015-Jan-18 08:33N 37°49' W 122°19'2 1.6
2015-Jan-18 07:33N 37°48' W 122°19'2 2.1
2015-Jan-18 06:33N 37°48' W 122°22'1 0.9
2015-Jan-18 05:33N 37°48' W 122°21'0 0.0
2015-Jan-18 04:33N 37°48' W 122°21'0 0.0
2015-Jan-18 03:33N 37°48' W 122°21'2 1.5
2015-Jan-18 02:33N 37°48' W 122°19'2 1.5
2015-Jan-18 01:33N 37°48' W 122°21'0 0.0
2015-Jan-18 00:33N 37°48' W 122°21'0 0.0
2015-Jan-17 23:33N 37°48' W 122°21'0 0.0
2015-Jan-17 22:33N 37°48' W 122°21'0 0.1
2015-Jan-17 21:33N 37°48' W 122°21'10 9.7
2015-Jan-17 20:33N 37°57' W 122°26'10 9.8
2015-Jan-17 19:30N 38°03' W 122°16'0 0.3
2015-Jan-17 18:33N 38°04' W 122°16'8 7.9
2015-Jan-17 17:33N 38°00' W 122°25'9 8.9
2015-Jan-17 16:33N 37°51' W 122°25'6 5.6
2015-Jan-17 15:33N 37°49' W 122°31'4 3.9
2015-Jan-17 14:33N 37°49' W 122°26'2 2.1
2015-Jan-17 13:33N 37°48' W 122°24'5 5.1
2015-Jan-17 12:33N 37°53' W 122°25'9 8.8
2015-Jan-17 11:33N 38°02' W 122°22'6 5.8
2015-Jan-17 10:29N 38°04' W 122°14'1 1.3
2015-Jan-17 09:33N 38°04' W 122°16'6 6.5
2015-Jan-17 08:33N 38°01' W 122°23'6 6.5
2015-Jan-17 07:33N 37°55' W 122°25'8 7.5
2015-Jan-17 06:33N 37°49' W 122°19'0 0.0
2015-Jan-17 05:33N 37°49' W 122°19'0 0.0
2015-Jan-17 04:33N 37°49' W 122°19'0 0.0
2015-Jan-17 03:33N 37°49' W 122°19'0 0.0
2015-Jan-17 02:33N 37°49' W 122°19'0 0.0
2015-Jan-17 01:33N 37°49' W 122°19'0 0.0
2015-Jan-17 00:33N 37°49' W 122°19'  

Dump ship's entire track history